Time;durP1;ratioP1;P1;durP2;ratioP2;P2;SDS_P1;SDS_P2;PMS_P1;PMS_P2;Temp;Humidity;BMP_temperature;BMP_pressure;BME280_temperature;BME280_humidity;BME280_pressure;Samples;Min_cycle;Max_cycle;Signal;HPM_P1;HPM_P2
2022/10/04 00:02:28;;;;;;;9.20;2.42;;;19.10;96.70;;;;;;5085604;28;20059;-73
2022/10/04 00:05:02;;;;;;;7.65;2.08;;;19.10;96.70;;;;;;5085374;28;20127;-73
2022/10/04 00:07:33;;;;;;;5.90;1.95;;;19.10;96.70;;;;;;5083810;28;20520;-73
2022/10/04 00:10:14;;;;;;;7.68;2.22;;;19.00;96.70;;;;;;5086711;28;21454;-73
2022/10/04 00:12:47;;;;;;;5.25;1.98;;;19.10;96.70;;;;;;5066712;28;20064;-73
2022/10/04 00:15:20;;;;;;;5.88;2.10;;;19.00;96.70;;;;;;5084074;28;20056;-72
2022/10/04 00:18:04;;;;;;;5.50;1.85;;;18.90;96.70;;;;;;5086396;28;20047;-73
2022/10/04 00:20:57;;;;;;;2.22;1.70;;;18.90;96.70;;;;;;5080078;28;20139;-73
2022/10/04 00:23:29;;;;;;;6.80;2.10;;;19.00;96.70;;;;;;5085319;28;20046;-72
2022/10/04 00:26:00;;;;;;;7.20;2.30;;;19.00;96.70;;;;;;5116384;27;20042;-72
2022/10/04 00:28:42;;;;;;;5.20;2.05;;;19.00;96.70;;;;;;5085047;28;20079;-72
2022/10/04 00:31:21;;;;;;;7.57;1.92;;;19.00;96.70;;;;;;5084871;28;20036;-72
2022/10/04 00:33:55;;;;;;;3.70;1.83;;;19.10;96.70;;;;;;5085703;28;20051;-72
2022/10/04 00:36:52;;;;;;;5.28;2.00;;;19.10;96.70;;;;;;5085825;28;20040;-73
2022/10/04 00:39:40;;;;;;;4.55;1.70;;;19.00;96.70;;;;;;5084534;28;20044;-73
2022/10/04 00:42:35;;;;;;;4.82;1.90;;;18.90;96.70;;;;;;5084129;28;20641;-72
2022/10/04 00:45:12;;;;;;;5.22;2.25;;;18.90;96.70;;;;;;5111939;27;20151;-73
2022/10/04 00:48:09;;;;;;;4.80;2.08;;;18.80;96.70;;;;;;5083532;28;20586;-72
2022/10/04 00:50:42;;;;;;;4.57;2.00;;;18.70;96.70;;;;;;5081616;28;20035;-72
2022/10/04 00:53:17;;;;;;;4.00;1.88;;;18.60;96.70;;;;;;5100629;28;20056;-72
2022/10/04 00:55:50;;;;;;;6.13;1.60;;;18.50;96.70;;;;;;5083203;28;20681;-73
2022/10/04 00:58:23;;;;;;;3.60;1.60;;;18.50;96.70;;;;;;5084422;28;20123;-73
2022/10/04 01:00:54;;;;;;;5.30;1.30;;;18.50;96.70;;;;;;5081296;28;20036;-73
2022/10/04 01:03:27;;;;;;;7.63;2.05;;;18.50;96.70;;;;;;5083724;28;20039;-72
2022/10/04 01:05:59;;;;;;;3.78;1.63;;;18.40;96.70;;;;;;5084966;28;20051;-73
2022/10/04 01:08:32;;;;;;;8.05;2.22;;;18.30;96.70;;;;;;5084749;28;20413;-72
2022/10/04 01:11:05;;;;;;;6.18;1.83;;;18.30;96.70;;;;;;5082697;28;20509;-73
2022/10/04 01:13:38;;;;;;;4.70;1.73;;;18.40;96.70;;;;;;5081098;28;20067;-73
2022/10/04 01:16:13;;;;;;;4.20;1.98;;;18.30;96.70;;;;;;5081760;28;20056;-72
2022/10/04 01:18:41;;;;;;;9.35;2.42;;;18.40;96.70;;;;;;5077161;28;20052;-73
2022/10/04 01:21:25;;;;;;;3.75;2.30;;;18.40;96.70;;;;;;5082960;28;20074;-73
2022/10/04 01:24:16;;;;;;;4.75;2.20;;;18.30;96.70;;;;;;5096598;28;20780;-72
2022/10/04 01:26:44;;;;;;;4.60;2.25;;;18.30;96.70;;;;;;5081378;28;20067;-72
2022/10/04 01:29:16;;;;;;;3.78;2.47;;;18.20;96.70;;;;;;5081244;28;20097;-72
2022/10/04 01:31:46;;;;;;;5.82;2.65;;;18.20;96.70;;;;;;5084866;28;20489;-73
2022/10/04 01:34:16;;;;;;;5.07;1.92;;;18.30;96.70;;;;;;5083121;28;20048;-73
2022/10/04 01:36:47;;;;;;;7.82;2.40;;;18.30;96.70;;;;;;5083108;28;20105;-72
2022/10/04 01:39:19;;;;;;;7.78;2.30;;;18.20;96.70;;;;;;5082624;28;20050;-72
2022/10/04 01:41:53;;;;;;;8.55;2.95;;;18.10;96.70;;;;;;5081148;28;20042;-72
2022/10/04 01:44:27;;;;;;;7.50;2.70;;;18.10;96.70;;;;;;5081857;28;20093;-72
2022/10/04 01:46:58;;;;;;;7.60;3.50;;;18.10;96.70;;;;;;5084287;28;20044;-73
2022/10/04 01:49:29;;;;;;;8.60;2.95;;;18.20;96.70;;;;;;5084090;28;20040;-72
2022/10/04 01:52:02;;;;;;;8.88;3.60;;;18.20;96.70;;;;;;5075781;28;20105;-72
2022/10/04 01:54:40;;;;;;;10.55;3.50;;;18.20;96.70;;;;;;5082877;28;20055;-72
2022/10/04 01:57:14;;;;;;;8.07;3.50;;;18.20;96.70;;;;;;5060030;28;20072;-72
2022/10/04 01:59:49;;;;;;;9.25;3.90;;;18.10;96.70;;;;;;5082656;28;20044;-72
2022/10/04 02:02:25;;;;;;;5.30;3.90;;;18.10;96.70;;;;;;5083490;28;20043;-72
2022/10/04 02:04:54;;;;;;;;;;;18.10;96.70;;;;;;5083517;28;20062;-72
2022/10/04 02:07:25;;;;;;;6.30;3.20;;;18.10;96.70;;;;;;5083294;28;19924;-72
2022/10/04 02:10:00;;;;;;;6.75;3.13;;;18.00;96.70;;;;;;5075285;28;20154;-72
2022/10/04 02:12:32;;;;;;;6.57;3.42;;;18.00;96.70;;;;;;5083053;28;20044;-72
2022/10/04 02:15:04;;;;;;;6.97;3.50;;;17.90;96.70;;;;;;5080961;28;20958;-72
2022/10/04 02:17:38;;;;;;;6.88;2.92;;;17.90;96.70;;;;;;5082846;28;20036;-71
2022/10/04 02:20:12;;;;;;;4.55;3.08;;;17.90;96.70;;;;;;5084717;28;20047;-72
2022/10/04 02:22:42;;;;;;;5.90;3.00;;;17.80;96.70;;;;;;5077778;28;20501;-71
2022/10/04 02:25:13;;;;;;;5.00;3.30;;;17.70;96.70;;;;;;5084222;28;20460;-72
2022/10/04 02:27:41;;;;;;;4.75;3.75;;;17.60;96.70;;;;;;5082915;28;20058;-71
2022/10/04 02:30:12;;;;;;;4.55;2.97;;;17.50;96.70;;;;;;5084565;28;20123;-71
2022/10/04 02:32:58;;;;;;;5.68;3.25;;;17.60;96.70;;;;;;5083374;28;20048;-72
2022/10/04 02:35:29;;;;;;;5.63;3.17;;;17.60;96.70;;;;;;5081474;28;20625;-72
2022/10/04 02:38:11;;;;;;;4.50;3.05;;;17.60;96.70;;;;;;5064378;28;20044;-71
2022/10/04 02:40:49;;;;;;;5.90;3.55;;;17.60;96.70;;;;;;5082038;28;20044;-72
2022/10/04 02:43:21;;;;;;;4.40;3.03;;;17.60;96.70;;;;;;5081078;28;20052;-72
2022/10/04 02:45:54;;;;;;;4.05;2.90;;;17.50;96.70;;;;;;5082090;28;20051;-71
2022/10/04 02:48:31;;;;;;;4.22;2.72;;;17.40;96.70;;;;;;5083364;28;20044;-71
2022/10/04 02:51:05;;;;;;;5.45;2.78;;;17.40;96.70;;;;;;5083457;28;20036;-71
2022/10/04 02:53:42;;;;;;;3.28;2.55;;;17.40;96.70;;;;;;5117833;27;20418;-71
2022/10/04 02:56:12;;;;;;;5.40;2.60;;;17.40;96.70;;;;;;5084165;28;20036;-72
2022/10/04 02:58:41;;;;;;;2.95;2.30;;;17.30;96.70;;;;;;5087953;28;20040;-72
2022/10/04 03:01:17;;;;;;;5.28;2.55;;;17.30;96.70;;;;;;5086629;28;20040;-71
2022/10/04 03:03:46;;;;;;;4.88;2.13;;;17.20;96.70;;;;;;5084322;28;20044;-71
2022/10/04 03:06:18;;;;;;;2.72;2.25;;;17.20;96.70;;;;;;5083152;28;20037;-72
2022/10/04 03:08:50;;;;;;;4.57;2.17;;;17.20;96.70;;;;;;5087667;28;20090;-72
2022/10/04 03:11:22;;;;;;;3.65;2.17;;;17.20;96.70;;;;;;5085463;28;20048;-71
2022/10/04 03:13:53;;;;;;;5.65;2.20;;;17.30;96.70;;;;;;5087607;28;20041;-71
2022/10/04 03:16:22;;;;;;;2.92;2.22;;;17.30;96.70;;;;;;5086563;28;20059;-72
2022/10/04 03:18:52;;;;;;;5.43;2.03;;;17.30;96.70;;;;;;5087483;28;20461;-70
2022/10/04 03:21:22;;;;;;;7.70;2.55;;;17.30;96.70;;;;;;5085104;28;20051;-71
2022/10/04 03:23:51;;;;;;;4.45;2.10;;;17.30;96.70;;;;;;5085976;28;20048;-71
2022/10/04 03:26:31;;;;;;;3.70;1.80;;;17.20;96.70;;;;;;5085161;28;20094;-71
2022/10/04 03:29:00;;;;;;;4.70;1.90;;;17.10;96.70;;;;;;5086545;28;20093;-71
2022/10/04 03:31:28;;;;;;;2.85;1.67;;;17.10;96.70;;;;;;5069543;28;20044;-71
2022/10/04 03:33:57;;;;;;;2.42;1.50;;;17.20;96.70;;;;;;5086485;28;20036;-71
2022/10/04 03:36:26;;;;;;;1.60;1.40;;;17.20;96.70;;;;;;5086894;28;20048;-71
2022/10/04 03:38:56;;;;;;;2.95;1.33;;;17.10;96.70;;;;;;5086248;28;20048;-70
2022/10/04 03:41:26;;;;;;;3.35;1.38;;;17.10;96.70;;;;;;5086188;28;20048;-71
2022/10/04 03:43:55;;;;;;;4.03;1.52;;;17.00;96.70;;;;;;5086625;28;20036;-71
2022/10/04 03:46:28;;;;;;;3.50;1.50;;;16.90;96.70;;;;;;5085452;28;20498;-71
2022/10/04 03:48:57;;;;;;;2.58;1.48;;;16.90;96.70;;;;;;5084516;28;20113;-71
2022/10/04 03:51:26;;;;;;;2.78;1.05;;;16.90;96.70;;;;;;5086795;28;20135;-71
2022/10/04 03:53:57;;;;;;;4.22;1.55;;;16.80;96.70;;;;;;5084942;28;20044;-71
2022/10/04 03:56:29;;;;;;;2.65;1.40;;;16.80;96.70;;;;;;5086568;28;20040;-71
2022/10/04 03:58:58;;;;;;;3.47;1.08;;;16.70;96.70;;;;;;5084799;28;20051;-71
2022/10/04 04:01:38;;;;;;;1.95;1.25;;;16.70;96.70;;;;;;5085089;28;20470;-71
2022/10/04 04:04:17;;;;;;;1.48;1.23;;;16.70;96.70;;;;;;5082608;28;20072;-70
2022/10/04 04:06:51;;;;;;;1.83;1.20;;;16.80;96.70;;;;;;5085775;28;20136;-70
2022/10/04 04:09:23;;;;;;;2.33;1.08;;;16.70;96.70;;;;;;5084759;28;20444;-71
2022/10/04 04:11:55;;;;;;;3.85;1.50;;;16.60;96.70;;;;;;5110606;27;20043;-71
2022/10/04 04:14:25;;;;;;;2.42;1.30;;;16.60;96.70;;;;;;5085353;28;20494;-71
2022/10/04 04:17:28;;;;;;;2.28;1.52;;;16.70;96.70;;;;;;5084646;28;20113;-71
2022/10/04 04:19:58;;;;;;;3.92;1.77;;;16.70;96.70;;;;;;5084250;28;20051;-72
2022/10/04 04:22:34;;;;;;;2.08;1.60;;;16.60;96.70;;;;;;5082340;28;20119;-72
2022/10/04 04:25:07;;;;;;;2.47;1.80;;;16.50;96.70;;;;;;5101455;28;20068;-72
2022/10/04 04:27:40;;;;;;;2.63;1.58;;;16.60;96.70;;;;;;5076639;28;20048;-72
2022/10/04 04:30:16;;;;;;;2.63;1.73;;;16.60;96.70;;;;;;5084880;28;20044;-72
2022/10/04 04:32:49;;;;;;;5.10;1.97;;;16.50;96.70;;;;;;5083746;28;20076;-73
2022/10/04 04:35:22;;;;;;;5.35;2.53;;;16.50;96.70;;;;;;5067691;28;20146;-73
2022/10/04 04:38:16;;;;;;;7.13;2.92;;;16.50;96.70;;;;;;5082937;28;20051;-72
2022/10/04 04:40:44;;;;;;;9.68;3.00;;;16.40;96.70;;;;;;5081363;28;20153;-72
2022/10/04 04:43:18;;;;;;;7.50;2.90;;;16.40;96.70;;;;;;5077551;28;20112;-72
2022/10/04 04:45:48;;;;;;;6.50;2.55;;;16.30;96.70;;;;;;5081684;28;20097;-73
2022/10/04 04:48:36;;;;;;;7.28;3.03;;;16.40;96.70;;;;;;5083904;28;20501;-73
2022/10/04 04:51:04;;;;;;;6.35;2.50;;;16.30;96.70;;;;;;5083887;28;20036;-72
2022/10/04 04:53:33;;;;;;;5.85;2.63;;;16.30;96.70;;;;;;5079897;28;20141;-73
2022/10/04 04:56:03;;;;;;;7.53;2.47;;;16.20;96.70;;;;;;5084775;28;20036;-72
2022/10/04 04:58:36;;;;;;;5.65;2.70;;;16.20;96.70;;;;;;5084479;28;20054;-73
2022/10/04 05:01:12;;;;;;;6.60;2.13;;;16.30;96.70;;;;;;5082859;28;20040;-73
2022/10/04 05:03:40;;;;;;;6.07;2.63;;;16.30;96.70;;;;;;5078344;28;20575;-72
2022/10/04 05:06:24;;;;;;;4.10;1.95;;;16.30;96.70;;;;;;5081995;28;20125;-72
2022/10/04 05:08:52;;;;;;;6.18;2.70;;;16.30;96.70;;;;;;5082469;28;20047;-72
2022/10/04 05:11:22;;;;;;;6.07;2.75;;;16.30;96.70;;;;;;5084652;28;20068;-72
2022/10/04 05:13:56;;;;;;;5.35;2.08;;;16.30;96.70;;;;;;5083859;28;20044;-72
2022/10/04 05:16:30;;;;;;;7.43;3.20;;;16.30;96.70;;;;;;5083737;28;20528;-72
2022/10/04 05:19:02;;;;;;;4.28;2.50;;;16.30;96.70;;;;;;5084776;28;20058;-72
2022/10/04 05:21:32;;;;;;;6.35;2.58;;;16.30;96.70;;;;;;5084495;28;20048;-73
2022/10/04 05:24:09;;;;;;;4.85;3.45;;;16.40;96.70;;;;;;5083006;28;20074;-72
2022/10/04 05:26:40;;;;;;;6.20;3.45;;;16.30;96.70;;;;;;5084390;28;20043;-72
2022/10/04 05:29:15;;;;;;;6.13;4.28;;;16.40;96.70;;;;;;5076826;28;20529;-72
2022/10/04 05:31:49;;;;;;;7.47;3.63;;;16.40;96.70;;;;;;5076398;28;20048;-72
2022/10/04 05:34:22;;;;;;;7.25;3.70;;;16.30;96.70;;;;;;5084397;28;20051;-72
2022/10/04 05:37:05;;;;;;;6.10;2.70;;;16.40;96.70;;;;;;5084497;28;20533;-72
2022/10/04 05:39:41;;;;;;;7.97;2.90;;;16.40;96.70;;;;;;5084096;28;20072;-73
2022/10/04 05:42:18;;;;;;;5.15;2.35;;;16.30;96.70;;;;;;5083822;28;20043;-73
2022/10/04 05:44:50;;;;;;;4.38;2.50;;;16.40;96.70;;;;;;5078705;28;20131;-72
2022/10/04 05:47:22;;;;;;;10.07;3.42;;;16.40;96.70;;;;;;5082972;28;20129;-72
2022/10/04 05:49:53;;;;;;;7.53;3.22;;;16.40;96.70;;;;;;5079982;28;20053;-72
2022/10/04 05:52:32;;;;;;;6.57;3.80;;;16.40;96.70;;;;;;5084234;28;20055;-72
2022/10/04 05:55:27;;;;;;;10.18;3.90;;;16.40;96.70;;;;;;5083445;28;20043;-73
2022/10/04 05:58:24;;;;;;;11.13;4.32;;;16.40;96.70;;;;;;5079764;28;20044;-72
2022/10/04 06:01:16;;;;;;;8.32;4.07;;;16.40;96.70;;;;;;5087839;28;20246;-72
2022/10/04 06:03:59;;;;;;;9.32;4.68;;;16.50;96.70;;;;;;5079712;28;20151;-72
2022/10/04 06:06:37;;;;;;;12.50;4.30;;;16.50;96.70;;;;;;5095799;28;20040;-72
2022/10/04 06:09:12;;;;;;;9.38;4.28;;;16.60;96.70;;;;;;5062463;28;20548;-72
2022/10/04 06:11:52;;;;;;;9.45;4.03;;;16.60;96.70;;;;;;5083426;28;20051;-73
2022/10/04 06:14:44;;;;;;;9.43;3.38;;;16.70;96.70;;;;;;5081962;28;20044;-73
2022/10/04 06:17:43;;;;;;;9.90;3.85;;;16.80;96.70;;;;;;5084366;28;20036;-73
2022/10/04 06:20:34;;;;;;;6.93;3.20;;;16.80;96.70;;;;;;5069685;28;20140;-73
2022/10/04 06:23:10;;;;;;;7.47;3.00;;;16.80;96.70;;;;;;5082415;28;20118;-72
2022/10/04 06:25:45;;;;;;;6.93;3.40;;;16.90;96.70;;;;;;5082653;28;20048;-72
2022/10/04 06:28:18;;;;;;;8.48;2.92;;;17.00;96.70;;;;;;5082179;28;20533;-72
2022/10/04 06:31:09;;;;;;;7.95;3.00;;;17.00;96.70;;;;;;5081759;28;20048;-73
2022/10/04 06:33:57;;;;;;;4.88;2.65;;;17.00;96.70;;;;;;5082815;28;20127;-73
2022/10/04 06:36:58;;;;;;;3.75;2.30;;;16.90;96.70;;;;;;5081414;28;20051;-72
2022/10/04 06:39:51;;;;;;;9.05;2.97;;;17.00;96.70;;;;;;5082387;28;20536;-72
2022/10/04 06:42:45;;;;;;;7.07;2.70;;;17.00;96.70;;;;;;5110176;28;20055;-73
2022/10/04 06:45:33;;;;;;;4.72;2.40;;;17.10;96.70;;;;;;5081020;28;20087;-73
2022/10/04 06:48:21;;;;;;;4.80;2.33;;;17.10;96.70;;;;;;5080923;28;20059;-73
2022/10/04 06:51:00;;;;;;;5.93;2.70;;;17.10;96.70;;;;;;5086735;28;20492;-73
2022/10/04 06:53:38;;;;;;;7.53;2.88;;;17.10;96.70;;;;;;5083638;28;20115;-73
2022/10/04 06:56:29;;;;;;;3.97;2.78;;;17.10;96.70;;;;;;5080428;28;20086;-72
2022/10/04 06:59:21;;;;;;;5.00;2.42;;;17.20;96.70;;;;;;5079603;28;20044;-72
2022/10/04 07:01:52;;;;;;;6.22;2.65;;;17.20;96.70;;;;;;5077436;28;20048;-73
2022/10/04 07:04:29;;;;;;;3.75;2.30;;;17.20;96.70;;;;;;5083335;28;20044;-72
2022/10/04 07:07:34;;;;;;;5.22;2.53;;;17.10;96.70;;;;;;5110707;28;20122;-73
2022/10/04 07:10:23;;;;;;;7.20;2.97;;;17.20;96.70;;;;;;5082530;28;20143;-74
2022/10/04 07:13:04;;;;;;;5.95;3.03;;;17.20;96.70;;;;;;5082016;28;20075;-73
2022/10/04 07:15:42;;;;;;;5.15;3.08;;;17.30;96.70;;;;;;5083172;28;20080;-73
2022/10/04 07:18:17;;;;;;;5.70;3.10;;;17.40;96.70;;;;;;5083283;28;20044;-73
2022/10/04 07:20:47;;;;;;;4.32;2.72;;;17.50;96.70;;;;;;5081279;28;20052;-73
2022/10/04 07:23:24;;;;;;;5.38;2.65;;;17.60;96.70;;;;;;5063265;28;20098;-73
2022/10/04 07:26:00;;;;;;;6.75;3.50;;;17.60;96.70;;;;;;5081401;28;20047;-73
2022/10/04 07:31:26;;;;;;;5.35;2.90;;;17.80;96.70;;;;;;5082753;28;20393;-72
2022/10/04 07:33:58;;;;;;;6.38;3.50;;;17.80;96.70;;;;;;5082392;28;20451;-73
2022/10/04 07:36:30;;;;;;;5.63;2.88;;;17.90;96.70;;;;;;5083349;28;20040;-73
2022/10/04 07:39:05;;;;;;;5.35;2.80;;;18.00;96.70;;;;;;5082173;28;20040;-73
2022/10/04 07:41:37;;;;;;;4.45;3.15;;;18.10;96.70;;;;;;5084706;28;20134;-73
2022/10/04 07:44:14;;;;;;;7.35;4.00;;;18.20;96.70;;;;;;5082795;28;20043;-73
2022/10/04 07:46:48;;;;;;;7.28;3.92;;;18.30;96.70;;;;;;5084520;28;20044;-72
2022/10/04 07:49:18;;;;;;;5.78;4.38;;;18.30;96.70;;;;;;5084501;28;20532;-72
2022/10/04 07:52:11;;;;;;;7.25;4.70;;;18.40;96.70;;;;;;5084745;28;20043;-73
2022/10/04 07:54:46;;;;;;;11.75;6.55;;;18.50;96.70;;;;;;5081291;28;20159;-72
2022/10/04 07:57:20;;;;;;;9.43;6.72;;;18.60;96.70;;;;;;5083366;28;20044;-76
2022/10/04 07:59:56;;;;;;;9.25;6.80;;;18.60;96.70;;;;;;5080012;28;20048;-73
2022/10/04 08:02:40;;;;;;;9.30;7.38;;;18.70;96.70;;;;;;5079073;28;20098;-73
2022/10/04 08:05:22;;;;;;;10.38;6.10;;;18.70;96.70;;;;;;5086705;28;20040;-73
2022/10/04 08:08:08;;;;;;;10.80;5.90;;;18.80;96.70;;;;;;5079733;28;20127;-73
2022/10/04 08:10:48;;;;;;;9.43;5.53;;;18.90;96.70;;;;;;5083703;28;20067;-73
2022/10/04 08:13:27;;;;;;;8.52;5.28;;;18.90;96.70;;;;;;5085028;28;20040;-72
2022/10/04 08:16:00;;;;;;;7.88;4.60;;;19.00;96.70;;;;;;5079366;28;20060;-72
2022/10/04 08:18:45;;;;;;;7.18;4.30;;;19.10;96.70;;;;;;5083667;28;20050;-72
2022/10/04 08:21:20;;;;;;;6.18;3.28;;;19.10;96.70;;;;;;5084198;28;20047;-72
2022/10/04 08:24:03;;;;;;;7.65;3.53;;;19.30;96.70;;;;;;5082072;28;20126;-72
2022/10/04 08:26:51;;;;;;;5.90;3.05;;;19.40;96.70;;;;;;5085022;28;20044;-72
2022/10/04 08:29:41;;;;;;;7.05;3.42;;;19.50;96.70;;;;;;5084199;28;20050;-72
2022/10/04 08:32:35;;;;;;;4.40;2.47;;;19.60;96.70;;;;;;5078040;28;20047;-72
2022/10/04 08:35:35;;;;;;;5.60;2.70;;;19.60;96.70;;;;;;5080761;28;20109;-72
2022/10/04 08:38:20;;;;;;;4.50;2.65;;;19.70;96.70;;;;;;5078920;28;20039;-72
2022/10/04 08:41:26;;;;;;;7.40;2.45;;;19.80;96.70;;;;;;5082412;28;20044;-71
2022/10/04 08:44:31;;;;;;;7.28;2.72;;;19.90;96.70;;;;;;5084820;28;20062;-72
2022/10/04 08:47:42;;;;;;;5.22;2.50;;;19.80;96.70;;;;;;5080733;28;20068;-72
2022/10/04 08:50:43;;;;;;;6.25;3.00;;;20.00;96.70;;;;;;5057660;28;20101;-72
2022/10/04 08:53:44;;;;;;;3.20;2.13;;;20.10;96.70;;;;;;5075975;28;20668;-72
2022/10/04 08:56:37;;;;;;;4.63;2.15;;;20.00;96.70;;;;;;5084097;28;20120;-72
2022/10/04 08:59:34;;;;;;;4.35;1.90;;;20.00;96.70;;;;;;5075981;28;20704;-74
2022/10/04 09:02:36;;;;;;;2.58;1.95;;;20.10;96.70;;;;;;5081405;28;20140;-73
2022/10/04 09:05:28;;;;;;;4.97;2.28;;;20.20;96.70;;;;;;5083590;28;20044;-73
2022/10/04 09:08:17;;;;;;;6.72;2.22;;;20.20;96.70;;;;;;5077971;28;20078;-73
2022/10/04 09:10:59;;;;;;;8.10;2.22;;;20.30;96.70;;;;;;5064667;28;21041;-72
2022/10/04 09:13:44;;;;;;;3.38;1.90;;;20.50;96.70;;;;;;5083487;28;20059;-72
2022/10/04 09:16:17;;;;;;;3.70;1.55;;;20.60;96.70;;;;;;5083092;28;20513;-72
2022/10/04 09:18:57;;;;;;;4.68;1.52;;;20.70;96.70;;;;;;5066694;28;20068;-72
2022/10/04 09:21:41;;;;;;;3.95;1.58;;;20.70;96.70;;;;;;5081323;28;20052;-72
2022/10/04 09:24:34;;;;;;;4.85;1.70;;;20.80;96.70;;;;;;5080174;28;20062;-72
2022/10/04 09:27:17;;;;;;;3.63;1.75;;;21.00;96.70;;;;;;5084920;28;20505;-73
2022/10/04 09:30:14;;;;;;;2.13;1.30;;;21.10;96.70;;;;;;5067321;28;20048;-72
2022/10/04 09:33:24;;;;;;;5.10;1.83;;;21.30;96.70;;;;;;5082540;28;20075;-73
2022/10/04 09:36:22;;;;;;;2.63;1.63;;;21.30;96.70;;;;;;5060186;28;20079;-72
2022/10/04 09:39:21;;;;;;;3.50;1.75;;;21.40;96.70;;;;;;5080373;28;20040;-72
2022/10/04 09:42:20;;;;;;;4.18;2.20;;;21.60;96.70;;;;;;5081600;28;20211;-73
2022/10/04 09:45:32;;;;;;;4.10;1.60;;;21.60;96.70;;;;;;5080476;28;20561;-72
2022/10/04 09:48:28;;;;;;;3.55;2.22;;;21.70;96.70;;;;;;5052351;28;20194;-73
2022/10/04 09:51:40;;;;;;;4.90;1.98;;;21.90;96.70;;;;;;5082750;28;20051;-72
2022/10/04 09:54:32;;;;;;;4.20;2.03;;;22.10;96.70;;;;;;5082498;28;20046;-72
2022/10/04 09:57:26;;;;;;;5.03;1.90;;;22.20;96.70;;;;;;5081175;28;20043;-72
2022/10/04 10:00:08;;;;;;;4.75;2.05;;;22.40;96.70;;;;;;5081506;28;20043;-73
2022/10/04 10:03:26;;;;;;;3.40;2.22;;;22.40;96.70;;;;;;5063266;28;20044;-73
2022/10/04 10:06:21;;;;;;;2.63;1.67;;;22.50;96.70;;;;;;5081837;28;20047;-73
2022/10/04 10:09:04;;;;;;;3.95;1.80;;;22.70;96.70;;;;;;5081301;28;20047;-73
2022/10/04 10:14:54;;;;;;;3.75;2.33;;;23.20;96.70;;;;;;5082191;28;20048;-73
2022/10/04 10:17:35;;;;;;;6.38;2.55;;;23.30;96.70;;;;;;5065052;28;20080;-73
2022/10/04 10:20:30;;;;;;;3.90;1.90;;;23.40;96.70;;;;;;5080378;28;20410;-73
2022/10/04 10:23:20;;;;;;;3.08;1.65;;;23.50;96.70;;;;;;5079249;28;20536;-74
2022/10/04 10:26:21;;;;;;;3.47;2.03;;;23.70;96.70;;;;;;5049538;28;20052;-73
2022/10/04 10:29:16;;;;;;;1.98;1.60;;;23.90;96.70;;;;;;5083321;28;20218;-73
2022/10/04 10:32:08;;;;;;;3.33;1.65;;;23.90;96.70;;;;;;5045322;28;20117;-73
2022/10/04 10:35:15;;;;;;;3.47;1.48;;;24.00;96.70;;;;;;5080670;28;20052;-73
2022/10/04 10:37:57;;;;;;;3.85;2.00;;;24.20;96.70;;;;;;5072736;28;20477;-73
2022/10/04 10:40:44;;;;;;;5.93;1.75;;;24.30;96.70;;;;;;5081941;28;20704;-73
2022/10/04 10:43:35;;;;;;;3.65;1.80;;;24.30;96.70;;;;;;5079948;28;20048;-72
2022/10/04 10:46:22;;;;;;;3.97;1.90;;;24.30;96.70;;;;;;5082276;28;20048;-72
2022/10/04 10:49:03;;;;;;;3.03;1.55;;;24.30;96.70;;;;;;5059400;28;20572;-72
2022/10/04 10:52:05;;;;;;;5.07;1.50;;;24.30;96.70;;;;;;5083283;28;20906;-72
2022/10/04 10:54:58;;;;;;;2.60;1.58;;;24.30;96.70;;;;;;5076749;28;20048;-72
2022/10/04 10:57:57;;;;;;;3.13;1.40;;;24.30;96.70;;;;;;5082634;28;20039;-72
2022/10/04 11:00:43;;;;;;;2.80;1.60;;;24.50;96.70;;;;;;5092709;28;20428;-72
2022/10/04 11:03:42;;;;;;;3.47;1.50;;;24.60;96.70;;;;;;5080982;28;20044;-72
2022/10/04 11:06:27;;;;;;;3.08;1.27;;;24.70;96.70;;;;;;5078227;28;20036;-72
2022/10/04 11:09:28;;;;;;;2.58;1.52;;;24.70;96.70;;;;;;5082826;28;20051;-72
2022/10/04 11:12:16;;;;;;;3.67;1.13;;;24.90;96.70;;;;;;5082175;28;20062;-73
2022/10/04 11:15:08;;;;;;;3.53;1.40;;;25.10;96.70;;;;;;5085566;28;20049;-73
2022/10/04 11:18:03;;;;;;;3.22;1.58;;;25.10;96.70;;;;;;5080045;28;20062;-73
2022/10/04 11:21:14;;;;;;;2.50;1.42;;;25.00;96.70;;;;;;5076025;28;20052;-73
2022/10/04 11:24:18;;;;;;;4.88;1.40;;;25.00;96.70;;;;;;5062505;28;20096;-72
2022/10/04 11:27:09;;;;;;;4.47;1.30;;;25.20;96.70;;;;;;5084563;28;20151;-72
2022/10/04 11:29:54;;;;;;;3.03;1.38;;;25.40;96.70;;;;;;5085125;28;20036;-73
2022/10/04 11:32:53;;;;;;;2.80;1.35;;;25.50;96.70;;;;;;5109522;27;20048;-73
2022/10/04 11:35:52;;;;;;;4.35;1.83;;;25.60;96.70;;;;;;5086049;28;20492;-73
2022/10/04 11:38:32;;;;;;;2.15;1.50;;;25.70;96.70;;;;;;5085711;28;20509;-72
2022/10/04 11:41:14;;;;;;;2.25;1.45;;;25.80;96.70;;;;;;5085069;28;20044;-73
2022/10/04 11:44:13;;;;;;;4.15;1.35;;;25.80;96.70;;;;;;5086204;28;20059;-73
2022/10/04 11:46:52;;;;;;;2.45;1.40;;;25.90;96.70;;;;;;5084621;28;20086;-73
2022/10/04 11:49:49;;;;;;;2.65;1.23;;;26.00;96.70;;;;;;5068433;28;20051;-73
2022/10/04 11:52:43;;;;;;;3.17;1.58;;;26.00;96.70;;;;;;5083012;28;21483;-73
2022/10/04 11:55:53;;;;;;;2.47;1.38;;;26.10;96.70;;;;;;5085860;28;20140;-73
2022/10/04 11:58:33;;;;;;;3.55;1.60;;;26.20;96.70;;;;;;5073330;28;20079;-73
2022/10/04 12:01:30;;;;;;;2.85;1.17;;;26.40;96.70;;;;;;5084409;28;20044;-72
2022/10/04 12:04:30;;;;;;;2.95;1.20;;;26.30;96.70;;;;;;5085908;28;20048;-73
2022/10/04 12:07:21;;;;;;;2.08;1.05;;;26.50;96.70;;;;;;5082991;28;20051;-73
2022/10/04 12:10:00;;;;;;;2.92;1.10;;;26.60;96.70;;;;;;5067646;28;20059;-73
2022/10/04 12:12:52;;;;;;;2.45;1.27;;;26.50;96.70;;;;;;5085709;28;20124;-73
2022/10/04 12:15:40;;;;;;;2.33;1.45;;;26.50;96.70;;;;;;5085328;28;20063;-73
2022/10/04 12:18:54;;;;;;;4.43;1.00;;;26.40;96.70;;;;;;5074675;28;20491;-73
2022/10/04 12:21:53;;;;;;;2.70;1.02;;;26.40;96.70;;;;;;5083773;28;20043;-73
2022/10/04 12:25:10;;;;;;;;;;;26.50;96.70;;;;;;5085268;28;20048;-73
2022/10/04 12:27:58;;;;;;;2.15;0.80;;;26.80;96.70;;;;;;5063402;28;19923;-73
2022/10/04 12:30:38;;;;;;;2.72;0.70;;;27.10;96.70;;;;;;5084208;28;20060;-73
2022/10/04 12:33:15;;;;;;;1.52;0.90;;;27.30;96.70;;;;;;5077347;28;20143;-73
2022/10/04 12:35:57;;;;;;;2.05;0.68;;;27.30;96.70;;;;;;5086700;28;20044;-72
2022/10/04 12:38:48;;;;;;;1.25;0.80;;;27.40;96.70;;;;;;5084042;28;20048;-73
2022/10/04 12:41:29;;;;;;;2.08;0.90;;;27.50;96.70;;;;;;5062200;28;20067;-72
2022/10/04 12:44:12;;;;;;;1.70;0.70;;;27.60;96.70;;;;;;5084000;28;20062;-72
2022/10/04 12:46:53;;;;;;;1.23;0.60;;;27.60;96.70;;;;;;5082832;28;20046;-72
2022/10/04 12:49:33;;;;;;;1.70;0.60;;;27.60;96.70;;;;;;5078854;28;20051;-72
2022/10/04 12:52:09;;;;;;;1.92;0.60;;;27.60;96.70;;;;;;5083061;28;20793;-72
2022/10/04 12:54:42;;;;;;;1.20;0.70;;;27.60;96.70;;;;;;5080549;28;20132;-72
2022/10/04 12:57:39;;;;;;;1.17;0.70;;;27.70;96.70;;;;;;5083781;28;20067;-72
2022/10/04 13:00:17;;;;;;;2.00;0.73;;;27.70;96.70;;;;;;5082576;28;20075;-72
2022/10/04 13:03:23;;;;;;;3.15;0.82;;;27.60;96.70;;;;;;5080793;28;20072;-73
2022/10/04 13:06:01;;;;;;;2.80;0.95;;;27.60;96.70;;;;;;5083139;28;20040;-73
2022/10/04 13:08:52;;;;;;;3.05;0.82;;;27.70;96.70;;;;;;5079921;28;20093;-72
2022/10/04 13:11:51;;;;;;;1.85;0.88;;;27.70;96.70;;;;;;5081656;28;20074;-72
2022/10/04 13:14:49;;;;;;;4.13;0.90;;;27.70;96.70;;;;;;5083366;28;20048;-73
2022/10/04 13:17:29;;;;;;;1.00;0.55;;;27.80;96.70;;;;;;5098260;28;20128;-73
2022/10/04 13:20:22;;;;;;;1.65;0.63;;;27.80;96.70;;;;;;5077134;28;20135;-73
2022/10/04 13:22:57;;;;;;;1.13;0.65;;;27.80;96.70;;;;;;5082154;28;20050;-74
2022/10/04 13:25:44;;;;;;;2.25;1.05;;;28.00;96.70;;;;;;5080590;28;20154;-74
2022/10/04 13:28:22;;;;;;;1.27;1.02;;;28.00;96.70;;;;;;5080004;28;20051;-73
2022/10/04 13:31:00;;;;;;;1.70;0.73;;;28.10;96.70;;;;;;5083269;28;20767;-73
2022/10/04 13:33:40;;;;;;;3.65;1.30;;;28.20;96.70;;;;;;5081845;28;20055;-74
2022/10/04 13:36:16;;;;;;;2.70;1.15;;;28.20;96.70;;;;;;5084502;28;20040;-74
2022/10/04 13:39:06;;;;;;;2.10;0.95;;;28.10;96.70;;;;;;5083997;28;20040;-73
2022/10/04 13:41:53;;;;;;;2.85;1.23;;;28.10;96.70;;;;;;5084020;28;20085;-73
2022/10/04 13:44:44;;;;;;;2.08;0.90;;;28.10;96.70;;;;;;5066251;28;20055;-73
2022/10/04 13:47:35;;;;;;;2.15;1.08;;;28.00;96.70;;;;;;5084232;28;20044;-73
2022/10/04 13:50:25;;;;;;;2.97;1.02;;;27.80;96.70;;;;;;5084257;28;20048;-73
2022/10/04 13:58:52;;;;;;;2.95;1.15;;;27.60;96.70;;;;;;5079930;28;20040;-74
2022/10/04 14:02:00;;;;;;;2.65;1.10;;;27.50;96.70;;;;;;5082896;28;20058;-73
2022/10/04 14:05:02;;;;;;;3.28;1.17;;;27.60;96.70;;;;;;5077497;28;20062;-72
2022/10/04 14:08:20;;;;;;;3.47;1.13;;;27.70;96.70;;;;;;5068625;28;20052;-73
2022/10/04 14:11:20;;;;;;;5.03;0.88;;;27.80;96.70;;;;;;5011430;28;20063;-74
2022/10/04 14:14:11;;;;;;;2.25;0.80;;;27.70;96.70;;;;;;5073983;28;20032;-73
2022/10/04 14:17:10;;;;;;;2.15;0.88;;;27.70;96.70;;;;;;5081157;28;20456;-73
2022/10/04 14:20:05;;;;;;;2.25;1.05;;;27.80;96.70;;;;;;5082637;28;20040;-73